Time;durP1;ratioP1;P1;durP2;ratioP2;P2;SDS_P1;SDS_P2;PMS_P1;PMS_P2;Temp;Humidity;BMP_temperature;BMP_pressure;BME280_temperature;BME280_humidity;BME280_pressure;Samples;Min_cycle;Max_cycle;Signal;HPM_P1;HPM_P2
2024/01/10 00:00:33;;;;;;;7.25;2.95;;;;;;;-5.19;98.03;103032.06;5072758;28;20067;-46
2024/01/10 00:03:03;;;;;;;6.82;3.17;;;;;;;-5.21;98.13;103033.69;5072789;28;20495;-45
2024/01/10 00:05:32;;;;;;;6.43;3.22;;;;;;;-5.23;98.87;103025.06;5072864;28;20123;-45
2024/01/10 00:08:00;;;;;;;7.47;2.67;;;;;;;-5.26;100.00;103021.56;5072727;28;20048;-46
2024/01/10 00:10:31;;;;;;;7.35;2.90;;;;;;;-5.25;100.00;103017.28;5070998;28;20053;-46
2024/01/10 00:13:00;;;;;;;8.32;3.28;;;;;;;-5.31;100.00;103020.50;5072481;28;20062;-44
2024/01/10 00:15:30;;;;;;;6.95;3.10;;;;;;;-5.27;100.00;103018.94;5071480;28;20044;-45
2024/01/10 00:18:02;;;;;;;7.15;2.90;;;;;;;-5.31;100.00;103012.81;5068386;28;20082;-46
2024/01/10 00:20:32;;;;;;;6.80;3.15;;;;;;;-5.30;100.00;103017.13;5069928;28;20056;-47
2024/01/10 00:23:00;;;;;;;6.95;2.90;;;;;;;-5.35;100.00;103010.97;5072412;28;20078;-47
2024/01/10 00:25:33;;;;;;;6.20;2.75;;;;;;;-5.33;100.00;103009.34;5072430;28;20174;-45
2024/01/10 00:28:01;;;;;;;7.13;3.25;;;;;;;-5.30;100.00;102999.19;5072450;28;20072;-46
2024/01/10 00:30:29;;;;;;;10.38;3.45;;;;;;;-5.30;100.00;103006.00;5071955;28;20078;-46
2024/01/10 00:32:57;;;;;;;9.52;3.05;;;;;;;-5.31;100.00;102992.28;5071623;28;20547;-47
2024/01/10 00:35:26;;;;;;;7.93;3.47;;;;;;;-5.29;100.00;102998.38;5069530;28;20514;-46
2024/01/10 00:37:56;;;;;;;7.07;2.80;;;;;;;-5.33;100.00;102996.50;5068865;28;20132;-47
2024/01/10 00:40:25;;;;;;;7.68;3.22;;;;;;;-5.30;100.00;103004.31;5069439;28;20549;-46
2024/01/10 00:42:58;;;;;;;7.10;3.03;;;;;;;-5.35;100.00;102995.56;5071923;28;20040;-46
2024/01/10 00:45:27;;;;;;;7.13;3.15;;;;;;;-5.32;100.00;102999.94;5072043;28;20110;-47
2024/01/10 00:47:55;;;;;;;6.68;3.00;;;;;;;-5.37;100.00;102997.22;5071733;28;20049;-46
2024/01/10 00:50:23;;;;;;;8.07;3.10;;;;;;;-5.35;100.00;102992.16;5071702;28;20044;-45
2024/01/10 00:52:56;;;;;;;7.85;3.05;;;;;;;-5.39;100.00;103003.13;5070419;28;20051;-50
2024/01/10 00:55:25;;;;;;;8.93;3.20;;;;;;;-5.40;100.00;102991.09;5072086;28;20545;-46
2024/01/10 00:57:53;;;;;;;8.98;3.47;;;;;;;-5.43;100.00;102989.28;5071604;28;20060;-47
2024/01/10 01:00:24;;;;;;;10.10;3.72;;;;;;;-5.39;100.00;102995.41;5070460;28;20075;-47
2024/01/10 01:02:55;;;;;;;8.73;3.63;;;;;;;-5.45;100.00;102998.66;5071824;28;20564;-48
2024/01/10 01:05:23;;;;;;;8.13;2.97;;;;;;;-5.43;100.00;102991.88;5070769;28;20049;-49
2024/01/10 01:07:52;;;;;;;7.03;2.95;;;;;;;-5.45;100.00;102989.25;5068587;28;20044;-49
2024/01/10 01:10:22;;;;;;;8.13;3.35;;;;;;;-5.49;100.00;102987.41;5068677;28;20106;-53
2024/01/10 01:12:51;;;;;;;9.00;3.80;;;;;;;-5.49;100.00;102996.78;5070670;28;20059;-49
2024/01/10 01:15:19;;;;;;;7.30;3.08;;;;;;;-5.45;100.00;102990.94;5071172;28;20044;-50
2024/01/10 01:17:48;;;;;;;7.68;2.90;;;;;;;-5.47;100.00;102985.78;5067703;28;20041;-52
2024/01/10 01:20:16;;;;;;;6.32;2.75;;;;;;;-5.48;100.00;102993.38;5069830;28;20045;-50
2024/01/10 01:22:45;;;;;;;8.40;3.00;;;;;;;-5.49;100.00;102991.66;5071755;28;20076;-53
2024/01/10 01:25:13;;;;;;;8.10;2.70;;;;;;;-5.46;100.00;102996.88;5071590;28;20052;-49
2024/01/10 01:27:41;;;;;;;7.82;3.38;;;;;;;-5.46;100.00;102989.19;5070221;28;20036;-49
2024/01/10 01:30:11;;;;;;;8.48;3.22;;;;;;;-5.49;100.00;103000.22;5071562;28;20052;-52
2024/01/10 01:32:39;;;;;;;10.30;3.20;;;;;;;-5.50;100.00;102992.47;5070188;28;20048;-50
2024/01/10 01:35:09;;;;;;;7.32;3.42;;;;;;;-5.47;100.00;102987.44;5071614;28;20037;-53
2024/01/10 01:37:37;;;;;;;6.97;2.80;;;;;;;-5.50;100.00;102985.63;5071498;28;20051;-50
2024/01/10 01:40:09;;;;;;;8.75;3.33;;;;;;;-5.49;100.00;102981.41;5071440;28;20114;-49
2024/01/10 01:42:37;;;;;;;9.43;2.95;;;;;;;-5.51;100.00;102977.91;5070270;28;20048;-50
2024/01/10 01:45:06;;;;;;;7.32;2.95;;;;;;;-5.54;100.00;102968.41;5071631;28;20044;-50
2024/01/10 01:47:34;;;;;;;8.27;3.38;;;;;;;-5.53;100.00;102957.31;5071281;28;20048;-48
2024/01/10 01:50:03;;;;;;;6.63;2.72;;;;;;;-5.52;100.00;102965.88;5069781;28;20070;-49
2024/01/10 01:52:34;;;;;;;9.15;3.50;;;;;;;-5.49;100.00;102966.00;5071677;28;20525;-49
2024/01/10 01:55:03;;;;;;;8.57;3.10;;;;;;;-5.53;100.00;102959.03;5074782;28;20028;-48
2024/01/10 01:57:32;;;;;;;8.82;3.22;;;;;;;-5.54;100.00;102967.53;5071396;28;20063;-51
2024/01/10 02:00:00;;;;;;;8.20;3.45;;;;;;;-5.56;100.00;102969.16;5073126;28;20511;-51
2024/01/10 02:02:29;;;;;;;8.32;3.15;;;;;;;-5.50;100.00;102965.13;5075120;28;20506;-53
2024/01/10 02:04:59;;;;;;;8.38;3.53;;;;;;;-5.53;100.00;102966.72;5075191;28;20052;-53
2024/01/10 02:07:28;;;;;;;7.25;3.15;;;;;;;-5.54;100.00;102964.97;5074119;28;20044;-51
2024/01/10 02:09:57;;;;;;;9.07;3.30;;;;;;;-5.56;100.00;102964.91;5071236;28;20533;-51
2024/01/10 02:12:26;;;;;;;7.07;3.20;;;;;;;-5.60;100.00;102963.94;5071066;28;20049;-50
2024/01/10 02:14:54;;;;;;;9.00;3.10;;;;;;;-5.59;100.00;102954.53;5070995;28;20057;-50
2024/01/10 02:17:22;;;;;;;8.13;3.00;;;;;;;-5.54;100.00;102952.16;5074190;28;20502;-53
2024/01/10 02:19:50;;;;;;;10.40;3.72;;;;;;;-5.55;100.00;102956.38;5075002;28;20055;-52
2024/01/10 02:22:18;;;;;;;7.97;3.42;;;;;;;-5.57;100.00;102957.19;5075149;28;20120;-53
2024/01/10 02:24:46;;;;;;;7.53;2.95;;;;;;;-5.55;100.00;102945.25;5074569;28;20170;-49
2024/01/10 02:27:16;;;;;;;8.07;3.78;;;;;;;-5.58;100.00;102947.72;5073338;28;20044;-47
2024/01/10 02:29:44;;;;;;;7.22;3.22;;;;;;;-5.62;100.00;102945.06;5072036;28;20048;-51
2024/01/10 02:32:12;;;;;;;8.55;3.33;;;;;;;-5.62;100.00;102942.50;5070459;28;20052;-51
2024/01/10 02:34:40;;;;;;;7.20;2.90;;;;;;;-5.57;100.00;102945.22;5074887;28;20083;-50
2024/01/10 02:37:08;;;;;;;6.30;3.08;;;;;;;-5.56;100.00;102939.28;5073390;28;20074;-51
2024/01/10 02:39:39;;;;;;;7.45;3.08;;;;;;;-5.58;100.00;102929.78;5073313;28;20496;-49
2024/01/10 02:42:07;;;;;;;8.65;3.45;;;;;;;-5.54;100.00;102937.63;5070760;28;20400;-45
2024/01/10 02:44:37;;;;;;;8.60;3.88;;;;;;;-5.50;100.00;102936.03;5070148;28;20076;-48
2024/01/10 02:47:06;;;;;;;7.90;2.95;;;;;;;-5.48;100.00;102930.16;5074427;28;20059;-45
2024/01/10 02:49:34;;;;;;;9.48;3.45;;;;;;;-5.51;100.00;102934.28;5074368;28;20040;-46
2024/01/10 02:52:04;;;;;;;6.80;3.58;;;;;;;-5.46;100.00;102935.34;5074517;28;20037;-46
2024/01/10 02:54:32;;;;;;;7.95;3.40;;;;;;;-5.48;100.00;102942.09;5073973;28;20040;-49
2024/01/10 02:57:00;;;;;;;8.93;3.30;;;;;;;-5.54;100.00;102935.06;5074143;28;20110;-46
2024/01/10 02:59:28;;;;;;;9.50;3.42;;;;;;;-5.58;100.00;102934.91;5070151;28;20044;-46
2024/01/10 03:02:01;;;;;;;;;;;;;;;-5.62;100.00;102937.38;5070287;28;20045;-45
2024/01/10 03:04:29;;;;;;;9.20;3.35;;;;;;;-5.64;100.00;102938.13;5073857;28;20003;-49
2024/01/10 03:06:58;;;;;;;9.18;3.45;;;;;;;-5.62;100.00;102933.91;5073678;28;20052;-45
2024/01/10 03:09:28;;;;;;;6.97;3.40;;;;;;;-5.66;100.00;102932.97;5072416;28;20044;-46
2024/01/10 03:11:57;;;;;;;7.95;3.63;;;;;;;-5.65;100.00;102932.13;5073872;28;20063;-45
2024/01/10 03:14:25;;;;;;;8.00;3.20;;;;;;;-5.69;100.00;102927.69;5073672;28;20044;-45
2024/01/10 03:16:54;;;;;;;8.90;3.80;;;;;;;-5.74;100.00;102929.22;5073677;28;20048;-49
2024/01/10 03:19:24;;;;;;;8.55;3.70;;;;;;;-5.73;100.00;102924.97;5072432;28;20403;-47
2024/01/10 03:21:52;;;;;;;7.65;3.30;;;;;;;-5.74;100.00;102934.34;5073634;28;20418;-49
2024/01/10 03:24:20;;;;;;;6.28;2.88;;;;;;;-5.75;100.00;102917.25;5073601;28;20580;-50
2024/01/10 03:26:48;;;;;;;10.02;3.72;;;;;;;-5.72;100.00;102925.03;5073445;28;20542;-50
2024/01/10 03:29:16;;;;;;;11.07;4.43;;;;;;;-5.70;100.00;102917.38;5073599;28;20512;-48
2024/01/10 03:31:45;;;;;;;11.13;3.80;;;;;;;-5.62;100.00;102919.41;5073321;28;20055;-48
2024/01/10 03:34:13;;;;;;;7.70;3.53;;;;;;;-5.68;100.00;102923.47;5073231;28;20063;-48
2024/01/10 03:36:43;;;;;;;7.95;3.63;;;;;;;-5.66;100.00;102927.81;5071954;28;20519;-49
2024/01/10 03:39:11;;;;;;;7.88;3.75;;;;;;;-5.69;100.00;102916.59;5073232;28;20114;-51
2024/01/10 03:41:39;;;;;;;9.52;4.10;;;;;;;-5.71;100.00;102921.66;5073223;28;20051;-49
2024/01/10 03:44:07;;;;;;;7.50;3.45;;;;;;;-5.71;100.00;102919.09;5073192;28;20070;-48
2024/01/10 03:46:36;;;;;;;11.05;3.42;;;;;;;-5.74;100.00;102924.09;5073153;28;20560;-46
2024/01/10 03:49:04;;;;;;;7.78;3.22;;;;;;;-5.71;100.00;102910.50;5073096;28;20087;-46
2024/01/10 03:51:31;;;;;;;9.73;4.03;;;;;;;-5.75;100.00;102912.13;5072731;28;20109;-45
2024/01/10 03:54:03;;;;;;;8.73;3.65;;;;;;;-5.71;100.00;102918.19;5072737;28;20068;-47
2024/01/10 03:56:31;;;;;;;10.10;3.75;;;;;;;-5.76;100.00;102912.91;5070924;28;20564;-47
2024/01/10 03:59:02;;;;;;;8.90;3.65;;;;;;;-5.75;100.00;102911.22;5072474;28;20052;-47
2024/01/10 04:01:30;;;;;;;10.50;4.13;;;;;;;-5.77;100.00;102906.94;5071256;28;20391;-46
2024/01/10 04:03:59;;;;;;;9.48;3.72;;;;;;;-5.78;100.00;102911.97;5071192;28;20040;-46
2024/01/10 04:06:28;;;;;;;8.73;3.92;;;;;;;-5.77;100.00;102912.06;5072500;28;20110;-46
2024/01/10 04:08:56;;;;;;;8.88;4.00;;;;;;;-5.75;100.00;102909.56;5072511;28;20510;-47
2024/01/10 04:11:29;;;;;;;7.93;3.75;;;;;;;-5.78;100.00;102902.63;5072509;28;20044;-48
2024/01/10 04:13:57;;;;;;;8.68;3.53;;;;;;;-5.75;100.00;102911.22;5072660;28;20538;-48
2024/01/10 04:16:28;;;;;;;10.40;4.32;;;;;;;-5.84;100.00;102904.09;5071945;28;20512;-46
2024/01/10 04:18:56;;;;;;;9.43;3.75;;;;;;;-5.90;100.00;102916.66;5072295;28;20127;-46
2024/01/10 04:21:27;;;;;;;7.60;3.05;;;;;;;-5.91;100.00;102909.81;5072388;28;20159;-47
2024/01/10 04:23:55;;;;;;;9.50;3.45;;;;;;;-5.91;100.00;102902.13;5071080;28;20049;-47
2024/01/10 04:26:24;;;;;;;10.57;4.05;;;;;;;-5.93;100.00;102899.50;5072145;28;20559;-45
2024/01/10 04:28:55;;;;;;;10.52;4.45;;;;;;;-5.94;100.00;102901.19;5072207;28;20044;-45
2024/01/10 04:31:23;;;;;;;9.93;3.35;;;;;;;-5.99;100.00;102900.16;5072304;28;20052;-46
2024/01/10 04:33:51;;;;;;;10.60;4.35;;;;;;;-6.01;100.00;102898.38;5052128;28;20041;-47
2024/01/10 04:36:22;;;;;;;8.75;3.30;;;;;;;-6.08;100.00;102894.75;5052424;28;20040;-48
2024/01/10 04:38:53;;;;;;;9.07;3.35;;;;;;;-6.10;100.00;102882.69;5071773;28;20119;-46
2024/01/10 04:41:22;;;;;;;11.13;4.22;;;;;;;-6.10;100.00;102880.13;5072088;28;20079;-47
2024/01/10 04:43:50;;;;;;;8.73;3.42;;;;;;;-6.15;100.00;102875.72;5071630;28;20048;-45
2024/01/10 04:46:23;;;;;;;10.10;3.25;;;;;;;-6.18;100.00;102873.00;5070283;28;20484;-46
2024/01/10 04:48:52;;;;;;;7.75;3.35;;;;;;;-6.15;100.00;102874.81;5071974;28;20044;-46
2024/01/10 04:51:20;;;;;;;8.82;3.25;;;;;;;-6.13;100.00;102880.88;5071879;28;20040;-46
2024/01/10 04:53:48;;;;;;;9.75;3.40;;;;;;;-6.21;100.00;102887.41;5071670;28;20044;-46
2024/01/10 04:56:16;;;;;;;8.77;4.05;;;;;;;-6.21;100.00;102890.84;5070317;28;20057;-47
2024/01/10 04:58:46;;;;;;;9.02;3.60;;;;;;;-6.19;100.00;102888.31;5071586;28;20049;-46
2024/01/10 05:01:14;;;;;;;8.98;4.25;;;;;;;-6.24;100.00;102890.72;5071551;28;20072;-45
2024/01/10 05:03:44;;;;;;;8.52;3.47;;;;;;;-6.25;100.00;102893.25;5071576;28;20047;-46
2024/01/10 05:06:12;;;;;;;9.45;3.72;;;;;;;-6.28;100.00;102894.00;5071175;28;20036;-46
2024/01/10 05:08:43;;;;;;;9.70;3.70;;;;;;;-6.32;100.00;102887.88;5071069;28;20044;-45
2024/01/10 05:11:11;;;;;;;9.55;3.55;;;;;;;-6.35;100.00;102884.34;5070792;28;20572;-47
2024/01/10 05:13:40;;;;;;;9.05;3.50;;;;;;;-6.37;100.00;102884.25;5071058;28;20198;-45
2024/01/10 05:16:08;;;;;;;8.82;4.05;;;;;;;-6.37;100.00;102878.28;5071349;28;20140;-46
2024/01/10 05:18:36;;;;;;;8.82;3.95;;;;;;;-6.38;100.00;102874.84;5070117;28;20055;-46
2024/01/10 05:21:06;;;;;;;9.35;4.13;;;;;;;-6.38;100.00;102882.53;5071047;28;20053;-47
2024/01/10 05:23:34;;;;;;;12.18;4.07;;;;;;;-6.38;100.00;102877.41;5071221;28;20048;-50
2024/01/10 05:26:07;;;;;;;8.38;3.08;;;;;;;-6.31;100.00;102878.53;5070908;28;20044;-47
2024/01/10 05:28:36;;;;;;;9.15;4.32;;;;;;;-6.30;100.00;102880.25;5070355;28;20048;-48
2024/01/10 05:31:06;;;;;;;9.73;4.03;;;;;;;-6.29;100.00;102875.16;5071210;28;20044;-49
2024/01/10 05:33:37;;;;;;;9.77;4.28;;;;;;;-6.24;100.00;102872.81;5070224;28;20044;-46
2024/01/10 05:36:11;;;;;;;9.65;4.55;;;;;;;-6.23;100.00;102879.69;5071079;28;20052;-44
2024/01/10 05:38:39;;;;;;;9.32;3.78;;;;;;;-6.24;100.00;102875.34;5071246;28;20105;-47
2024/01/10 05:41:08;;;;;;;9.60;3.90;;;;;;;-6.23;100.00;102891.59;5071085;28;20045;-46
2024/01/10 05:43:36;;;;;;;9.05;4.05;;;;;;;-6.25;100.00;102888.13;5071315;28;20048;-45
2024/01/10 05:46:08;;;;;;;11.10;4.25;;;;;;;-6.22;100.00;102875.41;5070952;28;20094;-45
2024/01/10 05:48:41;;;;;;;11.68;4.57;;;;;;;-6.17;100.00;102885.00;5084595;28;20048;-45
2024/01/10 05:51:12;;;;;;;8.63;4.30;;;;;;;-6.20;100.00;102877.22;5055086;28;20537;-48
2024/01/10 05:53:40;;;;;;;11.63;4.07;;;;;;;-6.17;100.00;102886.72;5071154;28;20058;-46
2024/01/10 05:56:08;;;;;;;8.43;3.72;;;;;;;-6.23;100.00;102892.47;5070749;28;20527;-48
2024/01/10 05:58:39;;;;;;;10.15;4.35;;;;;;;-6.24;100.00;102894.97;5070750;28;20140;-49
2024/01/10 06:01:09;;;;;;;9.18;4.18;;;;;;;-6.28;100.00;102887.16;5067528;28;20072;-49
2024/01/10 06:03:38;;;;;;;8.88;4.07;;;;;;;-6.29;100.00;102893.09;5047511;28;20404;-51
2024/01/10 06:06:11;;;;;;;11.03;4.53;;;;;;;-6.31;100.00;102884.50;5050078;28;20521;-50
2024/01/10 06:08:39;;;;;;;9.93;4.20;;;;;;;-6.26;100.00;102879.53;5070223;28;20465;-48
2024/01/10 06:11:09;;;;;;;11.02;4.35;;;;;;;-6.28;100.00;102887.16;5067605;28;20098;-51
2024/01/10 06:13:38;;;;;;;9.68;4.45;;;;;;;-6.32;100.00;102882.75;5066629;28;20032;-53
2024/01/10 06:16:20;;;;;;;16.58;5.40;;;;;;;-6.31;100.00;102878.53;5069164;28;20056;-52
2024/01/10 06:18:49;;;;;;;13.25;4.65;;;;;;;-6.34;100.00;102876.72;5070457;28;20048;-51
2024/01/10 06:21:20;;;;;;;12.07;4.75;;;;;;;-6.29;100.00;102867.47;5070245;28;20093;-50
2024/01/10 06:23:48;;;;;;;10.88;4.90;;;;;;;-6.33;100.00;102875.88;5070792;28;20048;-51
2024/01/10 06:26:19;;;;;;;9.02;4.22;;;;;;;-6.34;100.00;102873.25;5069382;28;20041;-52
2024/01/10 06:28:47;;;;;;;11.13;4.50;;;;;;;-6.36;100.00;102872.34;5067061;28;20140;-50
2024/01/10 06:31:15;;;;;;;12.38;5.47;;;;;;;-6.40;100.00;102873.03;5069479;28;20048;-49
2024/01/10 06:33:43;;;;;;;9.77;4.43;;;;;;;-6.36;100.00;102862.09;5070732;28;20040;-50
2024/01/10 06:36:11;;;;;;;11.00;4.57;;;;;;;-6.32;100.00;102861.41;5068810;28;20395;-51
2024/01/10 06:38:41;;;;;;;11.75;4.93;;;;;;;-6.37;100.00;102868.91;5068109;28;20132;-49
2024/01/10 06:41:10;;;;;;;11.98;4.68;;;;;;;-6.38;100.00;102863.72;5072295;28;20045;-51
2024/01/10 06:43:38;;;;;;;10.02;4.45;;;;;;;-6.43;100.00;102863.56;5074091;28;20407;-49
2024/01/10 06:46:06;;;;;;;12.65;5.07;;;;;;;-6.44;100.00;102866.94;5073816;28;20059;-48
2024/01/10 06:48:34;;;;;;;13.48;5.03;;;;;;;-6.37;100.00;102857.78;5074206;28;20098;-49
2024/01/10 06:51:10;;;;;;;10.32;4.78;;;;;;;-6.42;100.00;102865.31;5073661;28;20121;-49
2024/01/10 06:53:39;;;;;;;11.55;5.00;;;;;;;-6.44;100.00;102864.38;5070935;28;20492;-49
2024/01/10 06:56:09;;;;;;;12.40;5.28;;;;;;;-6.39;100.00;102865.41;5072084;28;20048;-51
2024/01/10 06:58:37;;;;;;;11.20;5.05;;;;;;;-6.40;100.00;102852.56;5073997;28;20047;-48
2024/01/10 07:01:06;;;;;;;11.90;5.22;;;;;;;-6.42;100.00;102849.06;5073261;28;20048;-51
2024/01/10 07:03:37;;;;;;;12.30;5.30;;;;;;;-6.44;100.00;102861.81;5074239;28;20557;-51
2024/01/10 07:06:06;;;;;;;12.77;4.97;;;;;;;-6.48;100.00;102868.47;5073890;28;20029;-50
2024/01/10 07:08:34;;;;;;;11.77;5.40;;;;;;;-6.42;100.00;102882.34;5071657;28;20044;-48
2024/01/10 07:11:02;;;;;;;12.75;5.75;;;;;;;-6.43;100.00;102871.25;5070526;28;20761;-47
2024/01/10 07:13:32;;;;;;;11.55;5.55;;;;;;;-6.48;100.00;102877.88;5069530;28;20052;-49
2024/01/10 07:16:01;;;;;;;13.05;5.70;;;;;;;-6.45;100.00;102875.41;5069179;28;20040;-53
2024/01/10 07:18:30;;;;;;;11.70;5.03;;;;;;;-6.47;100.00;102877.06;5073500;28;20093;-50
2024/01/10 07:20:59;;;;;;;12.90;5.38;;;;;;;-6.50;100.00;102874.41;5073101;28;20734;-50
2024/01/10 07:23:27;;;;;;;15.30;6.10;;;;;;;-6.48;100.00;102875.31;5073254;28;20439;-48
2024/01/10 07:25:55;;;;;;;13.48;6.22;;;;;;;-6.52;100.00;102870.88;5070288;28;20376;-50
2024/01/10 07:28:24;;;;;;;15.40;6.15;;;;;;;-6.47;100.00;102877.91;5068350;28;20052;-51
2024/01/10 07:30:53;;;;;;;13.40;5.93;;;;;;;-6.41;100.00;102884.97;5069597;28;20466;-49
2024/01/10 07:33:21;;;;;;;12.85;6.10;;;;;;;-6.44;100.00;102892.53;5070996;28;20064;-49
2024/01/10 07:35:52;;;;;;;12.15;5.25;;;;;;;-6.42;100.00;102890.91;5073095;28;20151;-48
2024/01/10 07:38:21;;;;;;;16.08;5.85;;;;;;;-6.38;100.00;102882.53;5073373;28;20068;-49
2024/01/10 07:40:49;;;;;;;14.65;6.32;;;;;;;-6.46;100.00;102872.00;5080057;28;20055;-49
2024/01/10 07:43:17;;;;;;;14.13;5.65;;;;;;;-6.47;100.00;102880.47;5093407;28;20061;-49
2024/01/10 07:45:47;;;;;;;14.43;6.53;;;;;;;-6.47;100.00;102888.16;5073657;28;20036;-49
2024/01/10 07:48:17;;;;;;;13.60;6.20;;;;;;;-6.47;100.00;102895.84;5072767;28;20052;-49
2024/01/10 07:50:45;;;;;;;12.25;5.45;;;;;;;-6.43;100.00;102899.41;5072127;28;20131;-51
2024/01/10 07:53:14;;;;;;;13.75;5.75;;;;;;;-6.37;100.00;102893.63;5071484;28;20048;-49
2024/01/10 07:55:42;;;;;;;13.88;5.45;;;;;;;-6.31;100.00;102899.88;5070863;28;20135;-49
2024/01/10 07:58:10;;;;;;;32.28;5.97;;;;;;;-6.31;100.00;102910.13;5072793;28;20075;-49
2024/01/10 08:00:38;;;;;;;13.35;6.20;;;;;;;-6.38;100.00;102908.16;5069238;28;20048;-50
2024/01/10 08:03:06;;;;;;;13.93;6.20;;;;;;;-6.35;100.00;102920.19;5070205;28;20808;-53
2024/01/10 08:05:36;;;;;;;14.93;5.72;;;;;;;-6.36;100.00;102915.88;5069293;28;20095;-50
2024/01/10 08:08:07;;;;;;;13.13;6.40;;;;;;;-6.35;100.00;102927.88;5069141;28;20467;-49
2024/01/10 08:10:35;;;;;;;13.15;6.00;;;;;;;-6.38;100.00;102923.50;5067431;28;20098;-49
2024/01/10 08:13:06;;;;;;;17.93;6.33;;;;;;;-6.41;100.00;102917.38;5068200;28;20076;-50
2024/01/10 08:15:35;;;;;;;15.85;6.00;;;;;;;-6.46;100.00;102914.66;5071053;28;20040;-52
2024/01/10 08:18:03;;;;;;;16.67;6.97;;;;;;;-6.43;100.00;102908.75;5068937;28;20056;-49
2024/01/10 08:20:32;;;;;;;13.35;6.30;;;;;;;-6.40;100.00;102908.91;5068364;28;20044;-51
2024/01/10 08:23:02;;;;;;;16.20;7.15;;;;;;;-6.41;100.00;102913.13;5071520;28;20063;-49
2024/01/10 08:25:30;;;;;;;16.92;6.50;;;;;;;-6.38;100.00;102913.28;5067413;28;20189;-48
2024/01/10 08:27:58;;;;;;;13.77;6.55;;;;;;;-6.28;100.00;102904.25;5071287;28;20044;-49
2024/01/10 08:30:27;;;;;;;17.67;6.90;;;;;;;-6.26;100.00;102900.03;5071209;28;20053;-49
2024/01/10 08:32:55;;;;;;;16.25;6.45;;;;;;;-6.21;100.00;102895.97;5067216;28;20052;-49
2024/01/10 08:35:23;;;;;;;15.63;6.95;;;;;;;-6.08;100.00;102897.31;5067692;28;20055;-50
2024/01/10 08:37:55;;;;;;;14.68;6.90;;;;;;;-6.00;100.00;102897.56;5067749;28;20430;-51
2024/01/10 08:40:25;;;;;;;16.25;7.05;;;;;;;-5.84;100.00;102894.69;5066580;28;20131;-49
2024/01/10 08:42:53;;;;;;;13.75;7.80;;;;;;;-5.70;100.00;102889.19;5069651;28;20037;-51
2024/01/10 08:45:22;;;;;;;16.17;7.93;;;;;;;-5.54;100.00;102886.34;5070678;28;20468;-47
2024/01/10 08:47:50;;;;;;;17.45;7.38;;;;;;;-5.28;100.00;102887.22;5072043;28;20060;-49
2024/01/10 08:50:18;;;;;;;17.05;7.30;;;;;;;-5.10;100.00;102883.50;5071941;28;20036;-51
2024/01/10 08:52:48;;;;;;;14.95;6.85;;;;;;;-4.88;100.00;102879.06;5071966;28;20546;-50
2024/01/10 08:55:16;;;;;;;17.52;7.85;;;;;;;-4.77;100.00;102882.84;5071850;28;20492;-48
2024/01/10 08:57:46;;;;;;;14.15;6.38;;;;;;;-4.85;100.00;102884.28;5070223;28;20127;-47
2024/01/10 09:00:16;;;;;;;17.67;7.53;;;;;;;-4.80;100.00;102893.00;5071874;28;20055;-45
2024/01/10 09:02:44;;;;;;;17.80;8.15;;;;;;;-4.66;100.00;102888.28;5071534;28;20121;-46
2024/01/10 09:05:13;;;;;;;15.70;7.70;;;;;;;-4.66;100.00;102884.06;5071670;28;20037;-45
2024/01/10 09:07:42;;;;;;;15.40;6.95;;;;;;;-4.62;100.00;102882.44;5071781;28;20415;-46
2024/01/10 09:10:10;;;;;;;15.85;7.30;;;;;;;-4.72;99.68;102876.13;5070494;28;20419;-47
2024/01/10 09:12:39;;;;;;;15.90;7.38;;;;;;;-4.53;98.20;102881.84;5071571;28;20519;-46
2024/01/10 09:15:13;;;;;;;17.85;7.43;;;;;;;-4.38;98.54;102884.88;5069978;28;20147;-46
2024/01/10 09:17:41;;;;;;;14.55;7.28;;;;;;;-4.38;97.33;102882.28;5071176;28;20066;-46
2024/01/10 09:20:11;;;;;;;15.23;7.40;;;;;;;-4.37;96.58;102888.31;5071734;28;20040;-48
2024/01/10 09:22:39;;;;;;;15.25;8.40;;;;;;;-4.35;98.18;102895.25;5070759;28;20090;-46
2024/01/10 09:25:09;;;;;;;17.38;8.02;;;;;;;-4.30;97.22;102893.66;5070307;28;20508;-48
2024/01/10 09:27:40;;;;;;;16.67;7.53;;;;;;;-4.28;95.52;102899.75;5070428;28;20044;-44
2024/01/10 09:30:12;;;;;;;14.48;7.13;;;;;;;-4.15;95.94;102888.09;5070634;28;20062;-45
2024/01/10 09:32:40;;;;;;;16.27;7.18;;;;;;;-4.04;95.00;102892.69;5068162;28;20041;-46
2024/01/10 09:35:11;;;;;;;15.95;7.70;;;;;;;-4.02;92.61;102885.88;5070569;28;20601;-47
2024/01/10 09:37:42;;;;;;;16.75;6.90;;;;;;;-3.95;89.95;102883.53;5071377;28;20039;-47
2024/01/10 09:40:14;;;;;;;16.75;7.03;;;;;;;-3.83;90.26;102897.53;5071506;28;20114;-46
2024/01/10 09:42:42;;;;;;;16.50;7.85;;;;;;;-3.69;90.20;102890.22;5071731;28;20071;-47
2024/01/10 09:45:13;;;;;;;16.40;7.20;;;;;;;-3.43;88.17;102891.78;5069512;28;20048;-46
2024/01/10 09:47:43;;;;;;;15.20;7.18;;;;;;;-3.40;86.18;102894.41;5066758;28;20051;-47
2024/01/10 09:50:12;;;;;;;17.27;7.53;;;;;;;-3.48;85.20;102895.06;5069118;28;20048;-46
2024/01/10 09:52:49;;;;;;;13.45;7.03;;;;;;;-3.39;83.24;102892.72;5069924;28;20053;-47
2024/01/10 09:55:20;;;;;;;14.63;7.05;;;;;;;-3.48;81.59;102898.50;5069876;28;20040;-46
2024/01/10 09:57:52;;;;;;;17.33;7.50;;;;;;;-3.46;79.51;102901.13;5067446;28;20044;-45
2024/01/10 10:00:25;;;;;;;15.93;6.97;;;;;;;-3.47;80.08;102899.38;5069112;28;20039;-45
2024/01/10 10:02:57;;;;;;;15.02;7.30;;;;;;;-3.53;80.47;102891.50;5066822;28;20057;-47
2024/01/10 10:05:26;;;;;;;16.30;7.82;;;;;;;-3.43;78.88;102896.06;5070591;28;20115;-46
2024/01/10 10:07:54;;;;;;;14.68;7.18;;;;;;;-3.44;79.82;102894.31;5070240;28;20108;-46
2024/01/10 10:10:27;;;;;;;14.70;6.65;;;;;;;-3.40;80.40;102891.84;5070284;28;20043;-45
2024/01/10 10:12:56;;;;;;;17.02;7.90;;;;;;;-3.36;79.08;102885.09;5091288;28;20129;-46
2024/01/10 10:15:27;;;;;;;15.65;7.20;;;;;;;-3.40;78.09;102884.13;5073576;28;20443;-45
2024/01/10 10:17:55;;;;;;;13.65;7.43;;;;;;;-3.43;79.29;102878.91;5072118;28;20045;-45
2024/01/10 10:20:26;;;;;;;15.80;7.43;;;;;;;-3.46;78.91;102888.28;5070454;28;20056;-45
2024/01/10 10:23:02;;;;;;;18.02;7.97;;;;;;;-3.45;78.96;102889.97;5071433;28;20596;-47
2024/01/10 10:25:32;;;;;;;13.60;7.35;;;;;;;-3.45;78.73;102884.84;5074670;28;20049;-47
2024/01/10 10:28:02;;;;;;;17.35;7.90;;;;;;;-3.43;79.82;102886.63;5073042;28;20136;-49
2024/01/10 10:30:33;;;;;;;16.83;7.40;;;;;;;-3.42;78.78;102884.94;5072983;28;20375;-49
2024/01/10 10:33:02;;;;;;;17.73;7.55;;;;;;;-3.42;78.51;102885.81;5071848;28;20160;-51
2024/01/10 10:35:31;;;;;;;16.40;7.32;;;;;;;-3.46;78.35;102883.97;5071306;28;20098;-49
2024/01/10 10:38:10;;;;;;;16.25;8.30;;;;;;;-3.41;78.40;102876.38;5070757;28;20553;-50
2024/01/10 10:40:38;;;;;;;16.60;7.38;;;;;;;-3.38;79.88;102881.63;5072997;28;20210;-51
2024/01/10 10:43:13;;;;;;;16.90;7.72;;;;;;;-3.42;80.42;102877.22;5070999;28;20033;-51
2024/01/10 10:45:48;;;;;;;14.25;7.22;;;;;;;-3.37;80.30;102873.03;5073068;28;20053;-54
2024/01/10 10:48:19;;;;;;;14.40;7.38;;;;;;;-3.31;77.92;102873.22;5071485;28;20054;-49
2024/01/10 10:50:56;;;;;;;15.98;7.78;;;;;;;-3.36;80.13;102872.22;5073077;28;20048;-51
2024/01/10 10:53:26;;;;;;;16.67;8.02;;;;;;;-3.38;81.30;102868.75;5073400;28;20503;-48
2024/01/10 10:55:56;;;;;;;16.13;7.72;;;;;;;-3.36;80.84;102868.78;5072192;28;20090;-48
2024/01/10 10:58:24;;;;;;;14.82;7.13;;;;;;;-3.31;80.37;102873.22;5069177;28;20044;-52
2024/01/10 11:00:54;;;;;;;16.30;6.85;;;;;;;-3.26;78.77;102876.78;5071813;28;20388;-49
2024/01/10 11:03:25;;;;;;;15.48;7.35;;;;;;;-3.30;78.71;102874.97;5068540;28;20086;-51
2024/01/10 11:05:54;;;;;;;17.00;7.90;;;;;;;-3.34;76.08;102873.13;5069305;28;20487;-49
2024/01/10 11:08:25;;;;;;;16.33;7.88;;;;;;;-3.34;76.77;102873.13;5069607;28;20032;-49
2024/01/10 11:10:54;;;;;;;15.30;6.97;;;;;;;-3.31;77.42;102870.63;5071202;28;20048;-53
2024/01/10 11:13:34;;;;;;;19.30;8.60;;;;;;;-3.31;76.25;102872.31;5070452;28;20526;-50
2024/01/10 11:16:29;;;;;;;17.38;8.07;;;;;;;-3.32;78.29;102866.31;5068883;28;20055;-51
2024/01/10 11:19:15;;;;;;;19.13;8.90;;;;;;;-3.30;78.96;102872.38;5066486;28;20045;-48
2024/01/10 11:21:57;;;;;;;16.23;8.52;;;;;;;-3.27;79.66;102859.59;5066165;28;20036;-51
2024/01/10 11:24:26;;;;;;;15.43;8.10;;;;;;;-3.27;79.54;102858.72;5070004;28;20047;-50